Time;durP1;ratioP1;P1;durP2;ratioP2;P2;SDS_P1;SDS_P2;PMS_P1;PMS_P2;Temp;Humidity;BMP_temperature;BMP_pressure;BME280_temperature;BME280_humidity;BME280_pressure;Samples;Min_cycle;Max_cycle;Signal;HPM_P1;HPM_P2
2022/06/14 09:06:49;;;;;;;2.85;1.05;;;;;;;20.54;45.04;100292.71;1759372;80;21524;-50
2022/06/14 09:09:36;;;;;;;3.27;1.40;;;;;;;20.48;45.40;100278.77;1766463;79;21046;-49
2022/06/14 09:12:09;;;;;;;6.83;0.93;;;;;;;20.50;46.09;100280.73;1779521;79;21582;-49
2022/06/14 09:15:05;;;;;;;4.37;1.40;;;;;;;20.52;45.83;100292.05;1764011;79;21015;-50
2022/06/14 09:17:50;;;;;;;2.83;1.25;;;;;;;20.52;46.60;100284.55;1754329;80;21230;-49
2022/06/14 09:20:37;;;;;;;4.08;1.60;;;;;;;20.63;45.84;100297.45;1742435;79;21505;-49
2022/06/14 09:23:48;;;;;;;4.70;1.62;;;;;;;20.72;45.49;100298.95;1759699;80;21106;-49
2022/06/14 09:26:30;;;;;;;4.30;1.32;;;;;;;20.78;45.12;100309.42;1768316;79;21160;-49
2022/06/14 09:29:22;;;;;;;4.28;1.32;;;;;;;20.83;44.53;100307.48;1754489;80;21513;-49
2022/06/14 09:32:29;;;;;;;3.27;1.10;;;;;;;20.89;44.42;100305.39;1780331;80;22198;-49
2022/06/14 09:35:07;;;;;;;3.40;1.30;;;;;;;20.90;43.95;100314.56;1703404;83;21121;-49
2022/06/14 09:37:48;;;;;;;3.27;1.37;;;;;;;20.95;44.27;100294.75;1747822;80;21074;-50
2022/06/14 09:40:35;;;;;;;3.17;1.50;;;;;;;21.07;44.03;100308.94;1761604;79;21050;-49
2022/06/14 09:43:24;;;;;;;3.52;1.20;;;;;;;21.13;43.70;100302.30;1785259;79;21101;-52
2022/06/14 09:46:14;;;;;;;3.98;1.40;;;;;;;21.09;44.09;100313.06;1766907;79;21632;-49
2022/06/14 09:49:09;;;;;;;3.52;1.35;;;;;;;21.04;44.46;100301.30;1776715;79;21160;-49
2022/06/14 09:51:54;;;;;;;4.12;1.40;;;;;;;21.04;45.44;100306.65;1753234;79;21114;-48
2022/06/14 09:54:51;;;;;;;2.90;1.22;;;;;;;21.13;46.21;100316.17;1778507;79;21089;-48
2022/06/14 09:57:26;;;;;;;3.77;1.30;;;;;;;21.21;45.71;100339.30;1763620;79;21467;-50
2022/06/14 09:59:57;;;;;;;;;;;;;;;21.19;44.64;100315.92;1756013;79;21080;-49
2022/06/14 10:02:44;;;;;;;4.47;1.62;;;;;;;21.20;45.42;100325.59;1770844;79;21874;-50
2022/06/14 10:05:44;;;;;;;4.22;2.00;;;;;;;21.22;44.37;100316.88;1781548;80;21094;-50
2022/06/14 10:08:39;;;;;;;3.77;1.65;;;;;;;21.24;43.21;100326.88;1774710;79;21062;-48
2022/06/14 10:11:25;;;;;;;3.70;1.30;;;;;;;21.24;42.57;100311.64;1779797;79;21105;-48
2022/06/14 10:14:09;;;;;;;3.50;1.40;;;;;;;21.26;43.04;100313.60;1770314;79;21061;-49
2022/06/14 10:17:35;;;;;;;3.02;1.35;;;;;;;21.26;43.82;100329.66;1765866;79;21102;-49
2022/06/14 10:20:22;;;;;;;4.30;1.70;;;;;;;21.23;43.79;100323.38;1775644;80;21156;-48
2022/06/14 10:23:16;;;;;;;3.90;1.70;;;;;;;21.12;44.58;100325.23;1769478;80;21529;-49
2022/06/14 10:29:40;;;;;;;3.25;1.20;;;;;;;21.07;44.63;100333.02;1758894;79;21528;-49
2022/06/14 10:32:16;;;;;;;4.70;1.35;;;;;;;21.09;44.31;100337.14;1758275;79;21143;-49
2022/06/14 10:35:09;;;;;;;4.53;1.87;;;;;;;21.07;43.21;100331.68;1754463;80;21063;-48
2022/06/14 10:38:00;;;;;;;4.03;1.62;;;;;;;21.10;44.16;100319.27;1758181;80;21028;-50
2022/06/14 10:40:50;;;;;;;3.25;1.50;;;;;;;21.12;42.52;100325.23;1767232;79;21105;-49
2022/06/14 10:43:40;;;;;;;2.95;1.17;;;;;;;21.10;43.05;100329.44;1731722;80;21053;-49
2022/06/14 10:46:23;;;;;;;4.75;1.65;;;;;;;21.09;42.88;100337.66;1765311;79;21136;-49
2022/06/14 10:49:11;;;;;;;3.77;1.52;;;;;;;21.15;42.74;100334.22;1735611;81;21043;-49
2022/06/14 10:52:12;;;;;;;3.17;1.30;;;;;;;21.27;42.22;100325.97;1711794;82;21486;-48
2022/06/14 10:55:05;;;;;;;3.62;1.60;;;;;;;21.32;42.41;100308.81;1708685;83;21102;-49
2022/06/14 10:58:03;;;;;;;6.12;1.85;;;;;;;21.37;42.16;100314.08;1724060;81;21117;-48
2022/06/14 11:00:36;;;;;;;4.95;1.90;;;;;;;21.37;42.97;100301.55;1710614;81;21455;-48
2022/06/14 11:03:43;;;;;;;3.52;1.55;;;;;;;21.41;42.60;100309.48;1708171;81;21142;-48
2022/06/14 11:06:34;;;;;;;5.40;1.80;;;;;;;21.51;42.82;100305.98;1717456;81;21061;-48
2022/06/14 11:09:46;;;;;;;3.90;1.60;;;;;;;21.79;41.32;100309.66;1708247;81;21015;-48
2022/06/14 11:12:36;;;;;;;4.60;1.42;;;;;;;21.91;40.39;100302.70;1675331;83;21066;-49
2022/06/14 11:15:23;;;;;;;3.52;1.42;;;;;;;21.92;40.95;100307.53;1633541;83;21252;-50
2022/06/14 11:18:04;;;;;;;6.40;1.50;;;;;;;22.01;41.12;100312.53;1737029;80;21098;-49
2022/06/14 11:20:52;;;;;;;3.42;1.60;;;;;;;22.11;40.88;100294.74;1705384;82;21113;-49
2022/06/14 11:23:44;;;;;;;4.33;1.62;;;;;;;22.19;40.21;100305.78;1707673;81;22084;-49
2022/06/14 11:26:34;;;;;;;3.72;1.80;;;;;;;22.15;40.52;100287.13;1718549;80;21556;-48
2022/06/14 11:29:12;;;;;;;3.60;1.80;;;;;;;22.09;39.76;100298.14;1716545;82;21791;-49
2022/06/14 11:31:59;;;;;;;4.87;1.70;;;;;;;22.00;39.65;100289.43;1692493;82;21019;-49
2022/06/14 11:34:57;;;;;;;4.00;1.70;;;;;;;22.08;39.72;100293.80;1721880;81;21514;-49
2022/06/14 11:37:58;;;;;;;5.17;2.00;;;;;;;22.20;39.88;100284.14;1623942;83;21264;-49
2022/06/14 11:40:32;;;;;;;3.72;1.70;;;;;;;22.39;40.33;100285.27;1719999;82;20999;-50
2022/06/14 11:43:10;;;;;;;4.17;2.17;;;;;;;22.52;39.67;100286.31;1716115;81;21142;-50
2022/06/14 11:45:57;;;;;;;3.60;1.80;;;;;;;22.57;39.54;100289.21;1725907;81;21073;-49
2022/06/14 11:48:45;;;;;;;4.58;1.67;;;;;;;22.63;39.20;100286.55;1696978;82;21048;-49
2022/06/14 11:51:45;;;;;;;5.33;1.50;;;;;;;22.74;39.07;100277.57;1708602;82;21062;-48
2022/06/14 11:54:40;;;;;;;5.25;1.67;;;;;;;22.90;38.22;100281.20;1693448;83;21133;-48
2022/06/14 11:57:20;;;;;;;4.28;1.80;;;;;;;23.03;38.33;100279.53;1703080;82;21610;-48
2022/06/14 12:00:10;;;;;;;4.42;1.70;;;;;;;23.11;38.34;100285.53;1701890;83;21064;-48
2022/06/14 12:03:10;;;;;;;4.10;1.87;;;;;;;23.15;36.48;100286.79;1702173;82;21024;-48
2022/06/14 12:06:18;;;;;;;3.45;1.55;;;;;;;23.20;35.23;100306.30;1676667;82;21768;-48
2022/06/14 12:09:16;;;;;;;4.70;1.92;;;;;;;23.24;35.41;100281.20;1698198;83;21078;-48
2022/06/14 12:11:55;;;;;;;4.37;1.60;;;;;;;23.34;35.59;100292.34;1723313;81;21416;-49
2022/06/14 12:14:55;;;;;;;5.17;2.00;;;;;;;23.45;34.60;100282.31;1734327;81;21054;-48
2022/06/14 12:17:41;;;;;;;2.72;1.27;;;;;;;23.57;34.79;100279.80;1720926;81;21038;-48
2022/06/14 12:20:19;;;;;;;4.67;2.08;;;;;;;23.66;34.68;100266.95;1718863;83;21659;-48
2022/06/14 12:23:14;;;;;;;3.70;1.67;;;;;;;23.60;34.33;100279.34;1702619;82;21114;-49
2022/06/14 12:29:02;;;;;;;4.97;1.85;;;;;;;23.67;35.21;100282.02;1714693;81;21102;-48
2022/06/14 12:32:05;;;;;;;4.92;1.80;;;;;;;23.76;36.57;100269.20;1717256;81;21092;-49
2022/06/14 12:34:48;;;;;;;3.85;1.80;;;;;;;23.89;38.03;100272.68;1713721;81;21089;-49
2022/06/14 12:37:38;;;;;;;4.42;1.70;;;;;;;24.08;36.29;100273.62;1711555;81;21528;-48
2022/06/14 12:40:20;;;;;;;4.00;1.72;;;;;;;24.20;34.77;100283.70;1729014;82;21245;-49
2022/06/14 12:43:27;;;;;;;4.47;2.30;;;;;;;24.26;32.53;100277.47;1711958;82;21191;-49
2022/06/14 12:46:03;;;;;;;4.17;1.70;;;;;;;24.27;32.89;100276.41;1705535;83;21028;-49
2022/06/14 12:48:43;;;;;;;5.97;1.65;;;;;;;24.34;32.45;100276.38;1716663;81;21090;-48
2022/06/14 12:51:22;;;;;;;4.20;2.05;;;;;;;24.40;32.73;100279.55;1718663;81;21149;-50
2022/06/14 12:54:30;;;;;;;3.70;1.77;;;;;;;24.41;32.50;100270.42;1713942;82;21981;-48
2022/06/14 12:57:18;;;;;;;5.12;2.02;;;;;;;24.52;32.71;100267.05;1708979;81;21585;-48
2022/06/14 13:00:11;;;;;;;4.83;2.00;;;;;;;24.65;32.45;100258.92;1688174;81;21103;-49
2022/06/14 13:03:04;;;;;;;3.10;1.47;;;;;;;24.73;31.65;100287.43;1698650;82;21493;-49
2022/06/14 13:05:38;;;;;;;4.55;1.98;;;;;;;24.82;31.77;100275.88;1614050;87;21154;-49
2022/06/14 13:08:19;;;;;;;4.22;1.82;;;;;;;24.92;31.04;100269.47;1644771;85;21123;-53
2022/06/14 13:11:21;;;;;;;4.85;1.92;;;;;;;25.02;30.82;100288.63;1698711;80;21632;-50
2022/06/14 13:14:03;;;;;;;5.20;2.08;;;;;;;25.09;30.44;100273.77;1768377;80;21031;-50
2022/06/14 13:16:41;;;;;;;4.60;1.95;;;;;;;25.13;30.47;100269.60;1748788;80;21083;-48
2022/06/14 13:19:36;;;;;;;8.33;2.10;;;;;;;25.12;30.44;100276.55;1757361;79;21328;-49
2022/06/14 13:22:36;;;;;;;4.45;2.05;;;;;;;25.14;31.04;100270.41;1758939;80;21146;-49
2022/06/14 13:25:40;;;;;;;4.37;1.70;;;;;;;25.24;31.50;100281.50;1699875;80;21046;-50
2022/06/14 13:28:21;;;;;;;4.03;1.95;;;;;;;25.34;31.56;100280.48;1760477;80;21051;-50
2022/06/14 13:30:57;;;;;;;4.15;1.90;;;;;;;25.40;31.63;100279.61;1720858;80;21095;-50
2022/06/14 13:33:47;;;;;;;4.80;2.17;;;;;;;25.35;31.38;100284.00;1736513;80;21066;-48
2022/06/14 13:36:19;;;;;;;3.87;1.70;;;;;;;25.23;31.23;100287.92;1747105;80;21301;-47
2022/06/14 13:39:01;;;;;;;4.55;1.70;;;;;;;25.24;31.71;100268.03;1751954;80;21633;-48
2022/06/14 13:41:39;;;;;;;5.85;2.05;;;;;;;25.36;31.78;100267.62;1739443;80;21106;-48
2022/06/14 13:44:19;;;;;;;4.55;1.90;;;;;;;25.51;32.21;100264.56;1712984;82;21063;-48
2022/06/14 13:46:57;;;;;;;5.90;2.17;;;;;;;25.60;32.36;100259.69;1752306;80;21055;-48
2022/06/14 13:49:37;;;;;;;4.12;2.00;;;;;;;25.71;32.25;100262.17;1742570;80;21779;-48
2022/06/14 13:52:14;;;;;;;4.30;2.30;;;;;;;25.85;31.41;100267.68;1741593;80;21111;-49
2022/06/14 13:54:58;;;;;;;5.37;2.50;;;;;;;25.92;31.13;100263.05;1726917;82;21047;-48
2022/06/14 13:57:36;;;;;;;4.30;1.95;;;;;;;25.95;30.10;100267.18;1731626;80;21091;-49
2022/06/14 14:00:20;;;;;;;4.80;2.00;;;;;;;25.99;30.12;100269.73;1711672;81;21061;-50
2022/06/14 14:03:13;;;;;;;;;;;;;;;26.01;29.84;100268.98;1743029;80;22185;-50
2022/06/14 14:06:01;;;;;;;3.98;1.82;;;;;;;26.11;28.99;100261.70;1744972;80;20185;-48
2022/06/14 14:09:13;;;;;;;3.50;1.40;;;;;;;26.46;26.80;100263.66;1737374;80;21023;-50
2022/06/14 14:12:08;;;;;;;4.35;1.50;;;;;;;27.56;25.65;100254.66;1746841;80;21074;-47
2022/06/14 14:15:12;;;;;;;4.28;1.87;;;;;;;29.30;23.22;100249.30;1744167;80;21106;-49
2022/06/14 14:18:12;;;;;;;3.95;1.30;;;;;;;30.62;22.14;100264.63;1678425;82;21118;-50
2022/06/14 14:21:22;;;;;;;3.52;1.40;;;;;;;31.48;20.68;100256.76;1751195;80;21490;-49
2022/06/14 14:24:06;;;;;;;4.75;1.57;;;;;;;32.43;20.42;100252.97;1745396;80;21063;-50
2022/06/14 14:26:41;;;;;;;3.98;1.30;;;;;;;33.51;19.35;100258.27;1749380;79;21023;-50
2022/06/14 14:29:27;;;;;;;3.75;1.55;;;;;;;34.08;18.43;100254.72;1751682;80;21019;-50
2022/06/14 14:32:37;;;;;;;2.92;1.10;;;;;;;34.23;17.36;100257.93;1722585;80;21069;-50
2022/06/14 14:35:21;;;;;;;6.55;1.60;;;;;;;34.50;17.59;100271.63;1734639;80;21084;-50
2022/06/14 14:38:10;;;;;;;4.35;1.57;;;;;;;34.32;17.35;100249.38;1726113;80;21126;-52
2022/06/14 14:43:49;;;;;;;5.50;1.72;;;;;;;35.26;16.78;100256.46;1740929;80;21607;-50
2022/06/14 14:46:25;;;;;;;3.77;1.10;;;;;;;35.67;16.51;100258.67;1717791;81;21435;-50
2022/06/14 14:49:00;;;;;;;4.78;1.45;;;;;;;35.59;16.84;100269.46;1721152;79;21012;-50
2022/06/14 14:51:52;;;;;;;3.77;1.40;;;;;;;35.58;16.98;100269.22;1727255;81;21237;-50
2022/06/14 14:54:36;;;;;;;5.10;2.10;;;;;;;35.76;16.39;100279.41;1739578;80;21538;-50
2022/06/14 14:57:25;;;;;;;4.65;1.40;;;;;;;35.67;16.34;100281.93;1735558;81;21074;-50
2022/06/14 15:00:19;;;;;;;4.05;1.52;;;;;;;35.60;16.43;100290.26;1721453;80;21038;-50
2022/06/14 15:29:48;;;;;;;4.85;1.40;;;;;;;35.74;16.43;100309.53;1805171;78;22647;-49
2022/06/14 15:32:31;;;;;;;3.90;1.47;;;;;;;35.66;16.32;100315.90;1772317;79;21105;-50
2022/06/14 15:35:00;;;;;;;4.65;1.30;;;;;;;35.89;16.52;100314.80;1768171;79;21967;-50
2022/06/14 15:37:34;;;;;;;2.90;1.00;;;;;;;36.36;16.02;100317.73;1776720;79;21036;-49
2022/06/14 15:40:15;;;;;;;4.35;1.50;;;;;;;36.69;15.34;100310.34;1768075;79;20939;-50
2022/06/14 15:43:07;;;;;;;4.60;1.00;;;;;;;37.02;15.54;100318.59;1771547;79;21272;-49
2022/06/14 15:45:44;;;;;;;3.02;0.98;;;;;;;36.86;14.72;100309.00;1762084;79;21094;-50
2022/06/14 15:48:35;;;;;;;4.20;1.32;;;;;;;36.32;15.30;100326.30;1766425;79;21095;-50
2022/06/14 15:51:09;;;;;;;4.45;1.00;;;;;;;35.89;15.54;100326.59;1752346;79;21113;-51
2022/06/14 15:53:46;;;;;;;3.95;1.35;;;;;;;35.50;16.02;100339.88;1774931;79;20969;-50
2022/06/14 15:56:29;;;;;;;2.50;0.90;;;;;;;35.21;15.90;100333.62;1766691;79;21100;-50
2022/06/14 15:59:03;;;;;;;3.20;1.00;;;;;;;34.99;16.18;100332.19;1767049;79;21124;-51
2022/06/14 16:01:39;;;;;;;3.35;1.32;;;;;;;34.68;16.50;100339.23;1764245;79;21183;-50
2022/06/14 16:04:30;;;;;;;4.78;1.50;;;;;;;34.02;17.09;100338.54;1775383;79;21062;-50
2022/06/14 16:07:09;;;;;;;3.22;1.30;;;;;;;33.03;17.83;100343.69;1770954;79;21104;-50
2022/06/14 16:10:07;;;;;;;5.55;1.20;;;;;;;31.81;18.70;100345.33;1770689;79;21610;-50
2022/06/14 16:12:42;;;;;;;8.00;1.85;;;;;;;30.99;19.62;100354.86;1771767;79;21045;-51
2022/06/14 16:15:39;;;;;;;4.08;1.50;;;;;;;30.29;20.64;100350.05;1768287;79;21690;-50
2022/06/14 16:18:40;;;;;;;4.83;1.37;;;;;;;29.67;21.57;100345.74;1772266;79;21048;-51
2022/06/14 16:21:32;;;;;;;6.25;1.55;;;;;;;28.97;22.45;100351.20;1775785;79;21015;-50
2022/06/14 16:23:59;;;;;;;3.72;1.10;;;;;;;28.10;23.56;100359.33;1779294;79;21109;-49
2022/06/14 16:27:04;;;;;;;5.92;1.05;;;;;;;27.54;23.69;100365.69;1766760;79;22557;-49
2022/06/14 16:30:05;;;;;;;3.58;1.10;;;;;;;27.00;24.34;100355.45;1776022;79;21160;-50
2022/06/14 16:33:03;;;;;;;3.45;1.20;;;;;;;26.54;25.09;100368.55;1767948;79;21002;-51
2022/06/14 16:36:05;;;;;;;5.12;1.40;;;;;;;26.14;25.59;100377.16;1782110;79;21017;-50
2022/06/14 16:38:48;;;;;;;2.62;1.35;;;;;;;25.75;26.03;100381.92;1773271;79;21112;-50
2022/06/14 16:41:53;;;;;;;3.67;1.10;;;;;;;25.43;26.29;100382.02;1770504;79;21044;-50
2022/06/14 16:44:44;;;;;;;4.45;1.17;;;;;;;25.16;26.70;100376.02;1767689;79;21193;-50
2022/06/14 16:47:26;;;;;;;4.17;1.27;;;;;;;24.85;27.07;100381.20;1787230;79;21100;-51
2022/06/14 16:50:05;;;;;;;4.65;1.20;;;;;;;24.57;27.40;100381.57;1790641;79;21635;-50
2022/06/14 16:52:49;;;;;;;4.83;1.35;;;;;;;24.28;28.06;100382.41;1753893;79;21496;-50
2022/06/14 16:55:33;;;;;;;2.85;1.10;;;;;;;24.09;28.02;100377.42;1765361;79;22283;-50
2022/06/14 16:58:22;;;;;;;;;;;;;;;23.96;27.78;100387.39;1770574;79;20971;-49
2022/06/14 17:00:57;;;;;;;3.08;1.40;;;;;;;23.76;27.99;100389.56;1767589;79;21215;-51
2022/06/14 17:03:45;;;;;;;5.55;1.25;;;;;;;23.68;28.20;100386.56;1777111;79;21035;-48
2022/06/14 17:06:47;;;;;;;3.27;1.10;;;;;;;23.59;28.15;100393.70;1774442;79;21128;-49
2022/06/14 17:09:39;;;;;;;5.83;1.82;;;;;;;23.45;28.28;100394.23;1782055;79;21547;-49
2022/06/14 17:12:29;;;;;;;3.90;0.98;;;;;;;23.31;28.44;100404.98;1766949;79;21255;-51
2022/06/14 17:15:13;;;;;;;3.72;1.15;;;;;;;23.14;28.93;100394.34;1764156;79;21663;-49
2022/06/14 17:17:51;;;;;;;;;;;;;;;23.07;28.82;100401.05;1752365;79;21061;-52
2022/06/14 17:20:53;;;;;;;4.40;1.60;;;;;;;22.99;29.05;100393.16;1769763;79;20228;-50
2022/06/14 17:23:28;;;;;;;2.87;1.10;;;;;;;22.97;29.14;100393.89;1774051;79;21542;-51
2022/06/14 17:31:49;;;;;;;2.95;0.98;;;;;;;22.84;29.77;100407.27;1767918;79;21039;-50
2022/06/14 17:34:21;;;;;;;4.12;1.45;;;;;;;22.77;29.87;100409.41;1762708;79;21057;-50
2022/06/14 17:36:57;;;;;;;3.55;1.25;;;;;;;22.71;29.92;100412.92;1787836;79;21043;-50
2022/06/14 17:39:47;;;;;;;5.15;1.40;;;;;;;22.62;30.18;100413.59;1764353;79;21330;-50
2022/06/14 17:42:19;;;;;;;3.50;1.20;;;;;;;22.52;30.14;100415.84;1776771;79;21624;-50
2022/06/14 17:45:03;;;;;;;3.42;1.12;;;;;;;22.41;30.52;100419.93;1767858;79;21070;-50
2022/06/14 17:47:34;;;;;;;3.30;1.40;;;;;;;22.30;30.85;100421.02;1738842;81;20974;-49
2022/06/14 17:50:10;;;;;;;7.03;1.55;;;;;;;22.19;30.92;100422.35;1769601;79;21112;-51
2022/06/14 17:52:50;;;;;;;2.97;1.07;;;;;;;22.13;30.97;100431.20;1757239;79;21124;-51
2022/06/14 17:55:25;;;;;;;4.37;1.35;;;;;;;22.09;31.20;100432.12;1785599;79;21085;-50
2022/06/14 17:58:15;;;;;;;4.05;1.17;;;;;;;22.04;31.25;100433.19;1793404;79;21078;-50
2022/06/14 18:00:51;;;;;;;4.30;1.22;;;;;;;21.97;31.37;100437.69;1783637;79;21061;-49
2022/06/14 18:03:19;;;;;;;3.20;1.12;;;;;;;21.89;31.52;100436.01;1769685;79;21584;-50
2022/06/14 18:05:55;;;;;;;3.12;1.00;;;;;;;21.82;31.61;100436.45;1783162;79;21973;-50
2022/06/14 18:08:36;;;;;;;2.47;0.88;;;;;;;21.76;31.60;100439.94;1769465;79;21651;-50
2022/06/14 18:11:14;;;;;;;2.70;1.10;;;;;;;21.65;31.84;100441.28;1768251;79;21073;-49
2022/06/14 18:13:50;;;;;;;4.30;1.15;;;;;;;21.56;32.03;100446.47;1778931;79;21046;-50
2022/06/14 18:16:38;;;;;;;3.77;1.20;;;;;;;21.47;32.14;100449.28;1774925;79;21452;-50
2022/06/14 18:22:34;;;;;;;5.58;1.55;;;;;;;21.36;32.47;100458.31;1756035;79;21552;-50
2022/06/14 18:25:10;;;;;;;4.00;1.22;;;;;;;21.27;32.45;100461.11;1773948;79;21081;-50
2022/06/14 18:27:50;;;;;;;9.63;1.32;;;;;;;21.20;32.73;100460.71;1784629;79;21069;-50
2022/06/14 18:30:19;;;;;;;3.70;1.17;;;;;;;21.14;33.00;100470.34;1768047;79;21046;-50
2022/06/14 18:32:57;;;;;;;4.83;1.52;;;;;;;21.08;33.24;100479.12;1714928;79;21148;-50
2022/06/14 18:35:24;;;;;;;4.25;1.45;;;;;;;20.96;33.24;100475.62;1776542;79;21066;-50
2022/06/14 18:37:51;;;;;;;4.05;1.50;;;;;;;20.89;33.19;100480.56;1738398;81;20990;-50
2022/06/14 18:40:24;;;;;;;7.45;2.67;;;;;;;20.82;33.05;100490.36;1763055;79;21077;-50
2022/06/14 18:42:56;;;;;;;12.23;5.55;;;;;;;20.71;32.97;100490.31;1766153;79;20983;-50
2022/06/14 18:45:29;;;;;;;11.33;5.60;;;;;;;20.58;33.03;100490.45;1785677;79;21158;-50
2022/06/14 18:48:16;;;;;;;10.58;6.15;;;;;;;20.49;33.13;100491.55;1765779;79;21077;-50
2022/06/14 18:50:58;;;;;;;10.30;4.92;;;;;;;20.39;33.36;100494.52;1765371;79;21034;-49
2022/06/14 18:53:49;;;;;;;9.30;4.03;;;;;;;20.29;33.70;100500.66;1779751;79;21033;-49
2022/06/14 18:56:20;;;;;;;6.67;2.70;;;;;;;20.25;34.24;100507.87;1763040;80;21156;-51
2022/06/14 18:59:09;;;;;;;8.15;2.90;;;;;;;20.14;34.42;100510.47;1778434;79;21076;-50
2022/06/14 19:01:36;;;;;;;4.92;2.00;;;;;;;20.10;34.64;100511.34;1710188;79;21654;-50
2022/06/14 19:04:14;;;;;;;5.70;2.47;;;;;;;20.10;34.72;100518.02;1751100;79;21061;-50
2022/06/14 19:07:19;;;;;;;5.17;2.05;;;;;;;20.09;34.79;100512.38;1784574;79;20999;-50
2022/06/14 19:10:17;;;;;;;5.97;2.42;;;;;;;20.07;34.78;100515.71;1751994;80;21058;-50
2022/06/14 19:13:07;;;;;;;4.87;2.22;;;;;;;20.02;34.82;100514.09;1764202;79;21770;-50
2022/06/14 19:16:01;;;;;;;5.08;2.35;;;;;;;19.95;35.12;100515.33;1736711;81;21611;-50
2022/06/14 19:19:01;;;;;;;5.58;2.60;;;;;;;19.90;35.32;100513.70;1763218;79;21113;-50
2022/06/14 19:22:10;;;;;;;6.17;3.20;;;;;;;19.81;35.43;100528.15;1766429;79;21080;-50
2022/06/14 19:25:04;;;;;;;8.08;4.05;;;;;;;19.70;35.46;100528.53;1749881;79;21619;-52
2022/06/14 19:27:49;;;;;;;8.58;4.28;;;;;;;19.56;35.61;100525.63;1787100;79;21069;-50
2022/06/14 19:30:20;;;;;;;11.30;5.28;;;;;;;19.47;35.64;100532.88;1767743;79;20982;-50
2022/06/14 19:33:00;;;;;;;8.03;4.55;;;;;;;19.42;35.76;100531.75;1771327;79;21612;-50
2022/06/14 19:35:35;;;;;;;6.00;3.10;;;;;;;19.36;35.88;100535.94;1787538;79;21029;-50
2022/06/14 19:38:08;;;;;;;7.17;2.83;;;;;;;19.28;36.15;100538.66;1776709;79;21034;-50
2022/06/14 19:40:48;;;;;;;5.45;2.45;;;;;;;19.20;36.52;100540.03;1784746;79;21645;-50
2022/06/14 19:43:28;;;;;;;7.83;3.17;;;;;;;19.11;37.01;100540.11;1783412;79;21026;-51
2022/06/14 19:46:07;;;;;;;5.25;2.50;;;;;;;19.05;37.93;100542.13;1763788;79;21128;-50
2022/06/14 19:51:26;;;;;;;5.08;1.95;;;;;;;18.92;38.64;100556.52;1747470;81;21038;-50
2022/06/14 19:53:53;;;;;;;4.55;1.92;;;;;;;18.88;38.99;100551.22;1775103;79;21516;-50
2022/06/14 19:56:21;;;;;;;4.83;2.02;;;;;;;18.86;39.21;100560.72;1789806;79;21015;-50
2022/06/14 19:58:55;;;;;;;4.60;1.55;;;;;;;18.85;39.41;100556.38;1773667;79;21046;-51
2022/06/14 20:01:34;;;;;;;4.20;1.40;;;;;;;18.85;39.51;100563.05;1771494;79;21619;-50
2022/06/14 20:04:17;;;;;;;4.55;1.70;;;;;;;18.82;39.65;100567.86;1786176;79;21104;-50
2022/06/14 20:07:04;;;;;;;3.95;1.57;;;;;;;18.77;39.83;100558.22;1771648;79;21078;-50
2022/06/14 20:09:35;;;;;;;6.00;1.55;;;;;;;18.72;39.47;100552.06;1786706;79;21036;-50
2022/06/14 20:12:04;;;;;;;4.30;1.67;;;;;;;18.59;39.94;100555.26;1779877;79;21539;-50
2022/06/14 20:14:36;;;;;;;7.10;1.80;;;;;;;18.45;40.35;100551.98;1770591;79;21520;-50
2022/06/14 20:17:24;;;;;;;6.55;1.85;;;;;;;18.32;40.67;100555.16;1792097;79;21006;-50
2022/06/14 20:20:21;;;;;;;4.12;1.47;;;;;;;18.20;40.67;100556.02;1786446;79;21116;-50
2022/06/14 20:22:47;;;;;;;4.72;1.77;;;;;;;18.09;40.90;100562.53;1761413;79;21176;-50
2022/06/14 20:25:22;;;;;;;6.25;1.77;;;;;;;17.97;40.71;100559.37;1752746;79;21052;-50
2022/06/14 20:27:53;;;;;;;6.05;1.60;;;;;;;17.91;40.79;100557.37;1774272;79;21040;-50
2022/06/14 20:30:25;;;;;;;4.85;1.87;;;;;;;17.85;40.97;100565.16;1771926;79;21038;-50
2022/06/14 20:32:52;;;;;;;4.05;1.92;;;;;;;17.76;41.16;100562.48;1775197;79;21151;-50
2022/06/14 20:35:21;;;;;;;6.00;1.60;;;;;;;17.69;41.31;100567.32;1771056;79;21065;-50
2022/06/14 20:38:01;;;;;;;3.92;1.50;;;;;;;17.62;41.24;100576.45;1737345;79;21113;-50
2022/06/14 20:40:32;;;;;;;3.55;1.60;;;;;;;17.56;41.17;100573.11;1769115;79;21066;-53
2022/06/14 20:43:01;;;;;;;7.05;1.67;;;;;;;17.51;41.17;100578.92;1773705;79;21572;-50
2022/06/14 20:45:33;;;;;;;4.50;1.52;;;;;;;17.49;41.41;100583.58;1770011;79;21603;-53
2022/06/14 20:48:00;;;;;;;3.95;1.60;;;;;;;17.46;41.38;100577.24;1768740;79;21053;-50
2022/06/14 20:50:33;;;;;;;4.75;1.85;;;;;;;17.43;41.60;100582.41;1744066;80;21050;-50
2022/06/14 20:53:04;;;;;;;3.58;1.62;;;;;;;17.41;41.78;100580.38;1771313;79;21547;-50
2022/06/14 20:55:41;;;;;;;4.80;1.50;;;;;;;17.35;41.97;100582.39;1779523;79;21040;-50
2022/06/14 20:58:09;;;;;;;4.45;1.52;;;;;;;17.29;42.03;100580.36;1770005;79;21167;-50
2022/06/14 21:00:37;;;;;;;4.35;1.67;;;;;;;17.25;42.30;100579.04;1776067;79;21496;-50
2022/06/14 21:03:06;;;;;;;6.55;1.70;;;;;;;17.22;42.79;100581.50;1779285;79;21098;-51
2022/06/14 21:05:34;;;;;;;5.45;2.20;;;;;;;17.16;43.31;100579.98;1786601;79;21191;-50
2022/06/14 21:08:01;;;;;;;4.72;1.80;;;;;;;17.09;43.34;100581.12;1784327;79;21513;-50
2022/06/14 21:13:19;;;;;;;4.70;2.00;;;;;;;17.04;43.87;100583.44;1772613;79;21338;-50
2022/06/14 21:15:51;;;;;;;4.35;1.37;;;;;;;16.98;44.04;100586.25;1764571;79;21112;-50
2022/06/14 21:18:31;;;;;;;7.12;1.75;;;;;;;16.92;44.02;100583.39;1773435;79;21133;-50
2022/06/14 21:21:05;;;;;;;6.12;2.12;;;;;;;16.86;44.42;100583.52;1762559;79;21567;-50
2022/06/14 21:23:30;;;;;;;6.25;2.05;;;;;;;16.80;44.42;100592.11;1777381;79;21868;-50
2022/06/14 21:26:04;;;;;;;6.15;1.90;;;;;;;16.71;44.46;100591.24;1768541;79;21588;-50
2022/06/14 21:28:32;;;;;;;4.78;1.60;;;;;;;16.65;44.97;100593.19;1787308;79;21076;-50
2022/06/14 21:31:11;;;;;;;4.15;1.87;;;;;;;16.59;44.89;100593.30;1784217;79;21082;-50
2022/06/14 21:34:05;;;;;;;5.50;1.67;;;;;;;16.55;44.96;100592.47;1770444;79;21042;-50
2022/06/14 21:36:42;;;;;;;4.40;1.67;;;;;;;16.53;45.06;100603.25;1793078;79;21140;-50
2022/06/14 21:39:44;;;;;;;5.65;2.30;;;;;;;16.51;45.09;100603.91;1772014;79;21050;-52
2022/06/14 21:42:28;;;;;;;5.62;1.95;;;;;;;16.49;45.16;100602.73;1773907;79;21354;-50
2022/06/14 21:45:00;;;;;;;5.85;1.77;;;;;;;16.47;44.94;100603.86;1700766;81;21022;-50
2022/06/14 21:47:26;;;;;;;4.55;1.77;;;;;;;16.45;45.13;100607.17;1781293;79;21113;-51
2022/06/14 21:49:54;;;;;;;7.75;2.00;;;;;;;16.42;45.32;100604.32;1775866;79;21697;-50
2022/06/14 21:52:37;;;;;;;5.97;2.30;;;;;;;16.38;45.29;100600.32;1739324;79;20997;-50
2022/06/14 21:55:08;;;;;;;7.28;1.95;;;;;;;16.35;45.47;100607.27;1765570;79;21036;-50
2022/06/14 21:57:35;;;;;;;5.55;2.02;;;;;;;16.32;45.65;100611.08;1774163;79;21085;-50
2022/06/14 22:00:05;;;;;;;5.22;1.72;;;;;;;16.27;45.79;100605.40;1767188;79;21048;-50
2022/06/14 22:02:48;;;;;;;6.05;1.72;;;;;;;16.23;45.93;100613.31;1769152;79;21969;-51
2022/06/14 22:05:16;;;;;;;5.97;1.67;;;;;;;16.17;45.94;100612.59;1767875;79;21085;-50
2022/06/14 22:07:44;;;;;;;3.47;1.30;;;;;;;16.12;46.07;100614.88;1759838;79;21042;-50
2022/06/14 22:10:10;;;;;;;6.05;1.72;;;;;;;16.10;46.10;100616.86;1786477;79;20994;-50
2022/06/14 22:12:37;;;;;;;4.37;1.55;;;;;;;16.08;46.37;100624.15;1767946;79;21049;-50
2022/06/14 22:15:07;;;;;;;6.47;1.87;;;;;;;16.05;46.60;100623.13;1768952;79;22036;-51
2022/06/14 22:17:35;;;;;;;4.45;1.60;;;;;;;16.00;46.74;100622.24;1744006;79;21724;-50
2022/06/14 22:20:04;;;;;;;7.58;1.70;;;;;;;15.94;46.64;100624.20;1770655;79;21526;-50
2022/06/14 22:22:30;;;;;;;4.47;1.42;;;;;;;15.88;46.48;100629.60;1767838;79;21289;-50
2022/06/14 22:24:57;;;;;;;5.95;1.60;;;;;;;15.84;46.39;100624.77;1766861;79;21556;-50
2022/06/14 22:27:28;;;;;;;7.85;1.70;;;;;;;15.81;46.47;100635.17;1781340;79;21114;-54
2022/06/14 22:30:10;;;;;;;4.58;1.60;;;;;;;15.77;46.58;100633.33;1719920;81;21109;-50
2022/06/14 22:32:38;;;;;;;7.37;1.75;;;;;;;15.75;46.75;100635.30;1761823;79;21113;-50
2022/06/14 22:35:10;;;;;;;4.87;1.75;;;;;;;15.73;46.92;100637.71;1772623;79;21045;-50
2022/06/14 22:37:39;;;;;;;4.25;1.40;;;;;;;15.68;46.96;100638.66;1737083;79;21128;-50